Nada, Texas
Current Conditions -  °F | °C
As of 1:35 PM on Tuesday 21 Oct 2014 (Local Time) from KELA Reporting Station
Clear Clear  
Wind Chill: 82°   Ceiling: Unl
Heat Index: 82°   Visibility: 10mi
Dew Point: 47°   Wind: 9mph
Humidity: 30%   Direction: 80°E
Pressure: 30.02"   Gusts: 17mph
Location:  29.41°N, 96.39°W
Report Text: KELA 211835Z AUTO 08008G15KT 10SM CLR 28/09 A3002 RMK AO2 T02760085
Loading
Personal Weather Stations






























Interactive Weather Map
Tropical Storm Tracking
New forecast layout! Learn more

10-Day Weather Forecast

Advertisements
Track Severe Weather on mobile